Time;durP1;ratioP1;P1;durP2;ratioP2;P2;SDS_P1;SDS_P2;PMS_P1;PMS_P2;Temp;Humidity;BMP_temperature;BMP_pressure;BME280_temperature;BME280_humidity;BME280_pressure;Samples;Min_cycle;Max_cycle;Signal;HPM_P1;HPM_P2
2022/12/18 00:02:06;;;;;;;15.25;12.73;;;19.80;28.60;;;;;;5056871;28;20417;-53
2022/12/18 00:04:32;;;;;;;13.60;11.10;;;19.80;28.00;;;;;;5056391;28;20053;-55
2022/12/18 00:06:58;;;;;;;14.55;11.32;;;19.70;28.00;;;;;;5038776;28;20555;-50
2022/12/18 00:09:24;;;;;;;14.95;11.00;;;19.70;28.00;;;;;;5056597;28;20067;-53
2022/12/18 00:11:50;;;;;;;15.13;11.43;;;19.70;28.00;;;;;;5038133;28;20036;-54
2022/12/18 00:14:16;;;;;;;14.88;11.43;;;19.70;28.00;;;;;;5056568;28;20025;-51
2022/12/18 00:16:45;;;;;;;13.70;10.88;;;19.70;28.00;;;;;;5055680;28;20376;-50
2022/12/18 00:19:11;;;;;;;13.40;11.07;;;19.70;28.00;;;;;;5055349;28;20021;-52
2022/12/18 00:21:39;;;;;;;15.15;11.57;;;19.60;27.90;;;;;;5056325;28;20368;-55
2022/12/18 00:24:06;;;;;;;15.57;11.73;;;19.60;28.00;;;;;;5068379;28;20031;-52
2022/12/18 00:26:33;;;;;;;14.35;10.98;;;19.60;28.10;;;;;;5055894;28;20421;-49
2022/12/18 00:29:04;;;;;;;16.95;12.15;;;19.60;28.10;;;;;;5038242;28;20029;-53
2022/12/18 00:31:30;;;;;;;16.98;12.30;;;19.60;28.00;;;;;;5055785;28;20047;-52
2022/12/18 00:33:57;;;;;;;14.82;11.18;;;19.60;28.00;;;;;;5056168;28;20094;-52
2022/12/18 00:36:26;;;;;;;16.63;11.73;;;19.60;28.00;;;;;;5056144;28;20025;-50
2022/12/18 00:38:54;;;;;;;15.93;11.85;;;19.60;28.00;;;;;;5038323;28;20405;-55
2022/12/18 00:44:06;;;;;;;14.43;10.93;;;19.60;27.90;;;;;;5055393;28;20039;-50
2022/12/18 00:46:32;;;;;;;15.85;11.57;;;19.50;27.90;;;;;;5055087;28;20043;-52
2022/12/18 00:48:58;;;;;;;14.73;11.02;;;19.50;27.90;;;;;;5037983;28;20047;-49
2022/12/18 00:51:26;;;;;;;14.90;10.85;;;19.50;27.90;;;;;;5055442;28;20032;-51
2022/12/18 00:53:52;;;;;;;14.50;10.73;;;19.50;27.90;;;;;;5038001;28;20029;-54
2022/12/18 00:56:21;;;;;;;13.68;10.93;;;19.50;27.90;;;;;;5055856;28;20032;-50
2022/12/18 00:58:47;;;;;;;12.77;9.77;;;19.40;27.80;;;;;;5055496;28;20445;-51
2022/12/18 01:01:14;;;;;;;13.88;10.55;;;19.40;27.80;;;;;;5055520;28;20101;-50
2022/12/18 01:03:39;;;;;;;13.30;10.82;;;19.40;27.80;;;;;;5054825;28;20470;-51
2022/12/18 01:06:10;;;;;;;16.58;10.65;;;19.40;27.80;;;;;;5055562;28;20112;-55
2022/12/18 01:08:36;;;;;;;12.80;9.57;;;19.40;27.90;;;;;;5055398;28;20074;-55
2022/12/18 01:11:11;;;;;;;12.60;9.95;;;19.40;27.90;;;;;;5054828;28;20447;-54
2022/12/18 01:13:37;;;;;;;14.70;10.27;;;19.40;27.80;;;;;;5037311;28;20082;-52
2022/12/18 01:16:03;;;;;;;13.18;9.93;;;19.40;27.80;;;;;;5054763;28;20425;-53
2022/12/18 01:18:29;;;;;;;12.00;9.82;;;19.30;27.80;;;;;;5054995;28;20463;-54
2022/12/18 01:20:58;;;;;;;11.98;9.35;;;19.30;27.80;;;;;;5055002;28;20166;-53
2022/12/18 01:23:26;;;;;;;14.13;9.68;;;19.30;27.70;;;;;;5056678;28;20028;-53
2022/12/18 01:25:52;;;;;;;12.73;9.77;;;19.30;27.70;;;;;;5056365;28;20028;-55
2022/12/18 01:28:18;;;;;;;13.63;10.23;;;19.30;27.70;;;;;;5021003;28;20039;-54
2022/12/18 01:30:44;;;;;;;12.35;9.95;;;19.30;27.70;;;;;;5037332;28;20425;-52
2022/12/18 01:33:09;;;;;;;13.35;10.18;;;19.30;27.70;;;;;;5037029;28;20063;-55
2022/12/18 01:35:41;;;;;;;12.65;10.02;;;19.30;27.70;;;;;;5054489;28;20029;-55
2022/12/18 01:38:07;;;;;;;12.85;9.85;;;19.20;27.60;;;;;;5054734;28;20033;-56
2022/12/18 01:40:34;;;;;;;12.05;9.25;;;19.30;27.70;;;;;;5036687;28;20082;-55
2022/12/18 01:43:00;;;;;;;12.32;9.90;;;19.20;27.60;;;;;;5054897;28;20040;-55
2022/12/18 01:45:31;;;;;;;11.48;9.15;;;19.20;27.60;;;;;;5055112;28;20411;-57
2022/12/18 01:48:06;;;;;;;13.23;9.32;;;19.20;27.60;;;;;;5036517;28;20368;-55
2022/12/18 01:50:34;;;;;;;12.70;9.85;;;19.20;27.60;;;;;;5037370;28;20486;-55
2022/12/18 01:53:11;;;;;;;12.20;9.05;;;19.20;27.60;;;;;;5037247;28;20112;-53
2022/12/18 01:55:47;;;;;;;12.02;9.65;;;19.20;27.60;;;;;;5054499;28;20025;-57
2022/12/18 01:58:13;;;;;;;13.63;9.85;;;19.20;27.60;;;;;;5036680;28;20025;-51
2022/12/18 02:00:40;;;;;;;13.15;9.90;;;19.10;27.50;;;;;;5036926;28;20048;-55
2022/12/18 02:03:06;;;;;;;11.90;9.20;;;19.10;27.50;;;;;;5037265;28;20364;-53
2022/12/18 02:05:46;;;;;;;11.85;9.45;;;19.10;27.50;;;;;;5036842;28;20056;-50
2022/12/18 02:08:27;;;;;;;13.43;9.98;;;19.10;27.50;;;;;;5034279;28;20060;-52
2022/12/18 02:11:23;;;;;;;12.07;8.98;;;19.10;27.50;;;;;;5036307;28;20033;-54
2022/12/18 02:14:09;;;;;;;12.90;9.40;;;19.10;27.50;;;;;;5036654;28;20029;-54
2022/12/18 02:17:00;;;;;;;13.88;9.68;;;19.10;27.50;;;;;;5003292;28;20048;-54
2022/12/18 02:19:41;;;;;;;11.27;9.05;;;19.00;27.50;;;;;;5043533;28;20021;-53
2022/12/18 02:22:14;;;;;;;11.00;8.57;;;19.00;27.50;;;;;;5036041;28;20021;-54
2022/12/18 02:25:25;;;;;;;10.70;8.80;;;19.00;27.50;;;;;;5039229;28;20087;-53
2022/12/18 02:27:52;;;;;;;12.70;9.63;;;19.00;27.40;;;;;;5036739;28;20372;-55
2022/12/18 02:30:20;;;;;;;11.57;8.65;;;19.00;27.40;;;;;;5037001;28;20025;-56
2022/12/18 02:32:52;;;;;;;12.07;9.20;;;19.00;27.40;;;;;;5036896;28;20104;-55
2022/12/18 02:35:27;;;;;;;12.27;8.95;;;19.00;27.40;;;;;;5039946;28;20110;-54
2022/12/18 02:37:57;;;;;;;11.20;8.25;;;19.00;27.40;;;;;;5040930;28;20025;-53
2022/12/18 02:40:26;;;;;;;10.85;8.90;;;19.00;27.40;;;;;;5039813;28;20040;-56
2022/12/18 02:42:52;;;;;;;12.25;9.38;;;18.90;27.40;;;;;;5058492;28;20033;-54
2022/12/18 02:45:19;;;;;;;13.00;8.75;;;18.90;27.40;;;;;;5040175;28;20029;-57
2022/12/18 02:47:49;;;;;;;12.20;8.85;;;18.90;27.40;;;;;;5057684;28;20025;-53
2022/12/18 02:50:28;;;;;;;10.57;8.15;;;18.90;27.40;;;;;;5040269;28;20029;-55
2022/12/18 02:53:31;;;;;;;12.00;9.10;;;18.90;27.30;;;;;;5040106;28;20071;-53
2022/12/18 02:56:15;;;;;;;11.52;8.98;;;18.90;27.30;;;;;;5040897;28;20052;-53
2022/12/18 02:58:56;;;;;;;11.50;8.95;;;18.90;27.40;;;;;;5039752;28;20041;-50
2022/12/18 03:01:58;;;;;;;11.20;8.85;;;18.90;27.40;;;;;;5024539;28;20040;-51
2022/12/18 03:04:34;;;;;;;10.50;8.07;;;18.80;27.30;;;;;;5039671;28;20032;-54
2022/12/18 03:07:07;;;;;;;11.40;8.70;;;18.80;27.30;;;;;;5040570;28;20359;-52
2022/12/18 03:09:42;;;;;;;11.00;8.18;;;18.80;27.30;;;;;;5040115;28;20463;-53
2022/12/18 03:12:23;;;;;;;11.85;8.35;;;18.80;27.30;;;;;;5039953;28;20047;-54
2022/12/18 03:15:03;;;;;;;11.40;8.38;;;18.80;27.30;;;;;;5039250;28;20032;-54
2022/12/18 03:17:31;;;;;;;11.05;8.43;;;18.70;27.20;;;;;;5039397;28;20464;-51
2022/12/18 03:20:03;;;;;;;12.77;9.07;;;18.70;27.30;;;;;;5057558;28;20056;-53
2022/12/18 03:22:34;;;;;;;10.27;7.97;;;18.70;27.20;;;;;;5042909;28;20448;-51
2022/12/18 03:25:07;;;;;;;12.02;8.75;;;18.70;27.30;;;;;;5019636;28;20048;-57
2022/12/18 03:27:37;;;;;;;10.60;8.23;;;18.70;27.20;;;;;;5019967;28;20044;-54
2022/12/18 03:30:10;;;;;;;9.70;7.93;;;18.70;27.30;;;;;;5028981;28;20084;-55
2022/12/18 03:32:43;;;;;;;11.77;8.77;;;18.70;27.80;;;;;;5039556;28;20049;-55
2022/12/18 03:35:13;;;;;;;9.02;7.68;;;18.70;27.30;;;;;;5019833;28;20025;-52
2022/12/18 03:37:39;;;;;;;10.25;7.50;;;18.70;27.20;;;;;;5018392;28;20381;-54
2022/12/18 03:40:07;;;;;;;9.25;7.28;;;18.70;27.30;;;;;;5024077;28;20028;-56
2022/12/18 03:43:00;;;;;;;9.30;7.05;;;18.60;27.20;;;;;;5039222;28;20471;-55
2022/12/18 03:45:37;;;;;;;11.02;7.60;;;18.60;27.20;;;;;;5038953;28;20017;-57
2022/12/18 03:48:13;;;;;;;9.65;7.22;;;18.60;27.20;;;;;;5038781;28;20087;-56
2022/12/18 03:50:59;;;;;;;10.80;7.45;;;18.60;27.20;;;;;;5022869;28;20033;-55
2022/12/18 03:53:31;;;;;;;9.73;7.40;;;18.60;27.20;;;;;;5039602;28;20037;-50
2022/12/18 03:56:00;;;;;;;10.15;8.02;;;18.60;27.20;;;;;;5039343;28;20086;-56
2022/12/18 03:58:35;;;;;;;9.32;7.30;;;18.60;27.20;;;;;;5038384;28;20032;-49
2022/12/18 04:01:16;;;;;;;8.57;6.90;;;18.50;27.20;;;;;;5039147;28;20059;-54
2022/12/18 04:03:46;;;;;;;9.38;7.70;;;18.50;27.20;;;;;;5039054;28;20037;-50
2022/12/18 04:06:14;;;;;;;9.98;7.35;;;18.50;27.20;;;;;;5039188;28;20029;-51
2022/12/18 04:08:42;;;;;;;9.02;7.20;;;18.50;27.20;;;;;;5037854;28;20041;-54
2022/12/18 04:11:11;;;;;;;8.85;6.68;;;18.50;27.20;;;;;;5022599;28;20473;-53
2022/12/18 04:13:38;;;;;;;8.38;6.85;;;18.50;27.20;;;;;;5039134;28;20111;-53
2022/12/18 04:16:09;;;;;;;9.05;6.78;;;18.50;27.10;;;;;;5035838;28;20049;-53
2022/12/18 04:18:37;;;;;;;7.80;6.30;;;18.50;27.10;;;;;;5035266;28;20049;-53
2022/12/18 04:21:03;;;;;;;9.10;6.45;;;18.50;27.10;;;;;;5035643;28;20494;-53
2022/12/18 04:23:29;;;;;;;9.38;6.78;;;18.50;27.10;;;;;;5035129;28;20128;-55
2022/12/18 04:25:57;;;;;;;7.03;5.85;;;18.50;27.20;;;;;;5035198;28;20449;-53
2022/12/18 04:28:38;;;;;;;7.78;6.05;;;18.50;27.10;;;;;;5035051;28;20390;-52
2022/12/18 04:31:04;;;;;;;8.07;6.22;;;18.40;27.10;;;;;;5036348;28;20029;-56
2022/12/18 04:33:30;;;;;;;8.48;6.00;;;18.40;27.10;;;;;;5035177;28;20354;-53
2022/12/18 04:35:56;;;;;;;9.70;6.60;;;18.40;27.10;;;;;;5035038;28;20029;-51
2022/12/18 04:38:22;;;;;;;8.23;5.97;;;18.40;27.10;;;;;;5034758;28;20033;-53
2022/12/18 04:40:54;;;;;;;8.43;6.28;;;18.40;27.10;;;;;;5034442;28;20355;-53
2022/12/18 04:43:25;;;;;;;7.15;5.65;;;18.40;27.10;;;;;;5035134;28;20022;-53
2022/12/18 04:45:51;;;;;;;7.78;5.60;;;18.40;27.10;;;;;;5035695;28;20090;-56
2022/12/18 04:48:16;;;;;;;8.68;6.07;;;18.40;27.10;;;;;;5035353;28;20037;-54
2022/12/18 04:50:42;;;;;;;7.30;5.60;;;18.40;27.10;;;;;;5035423;28;20026;-57
2022/12/18 04:53:08;;;;;;;8.68;5.93;;;18.40;27.10;;;;;;5035083;28;20033;-55
2022/12/18 04:55:34;;;;;;;7.57;5.43;;;18.30;27.10;;;;;;5035589;28;20029;-55
2022/12/18 04:58:00;;;;;;;6.80;5.15;;;18.40;27.10;;;;;;5035324;28;20040;-56
2022/12/18 05:00:26;;;;;;;9.77;6.45;;;18.30;27.10;;;;;;5036300;28;20040;-52
2022/12/18 05:02:51;;;;;;;7.85;5.38;;;18.30;27.10;;;;;;5035128;28;20123;-54
2022/12/18 05:05:17;;;;;;;9.77;6.10;;;18.30;27.20;;;;;;5034579;28;20068;-54
2022/12/18 05:07:43;;;;;;;7.55;5.53;;;18.30;27.20;;;;;;5034488;28;20445;-55
2022/12/18 05:10:10;;;;;;;6.85;5.38;;;18.30;27.20;;;;;;5034395;28;20029;-56
2022/12/18 05:12:57;;;;;;;6.60;5.40;;;18.30;27.20;;;;;;5035507;28;20028;-57
2022/12/18 05:15:21;;;;;;;6.90;5.25;;;18.30;27.20;;;;;;5034993;28;20110;-54
2022/12/18 05:17:47;;;;;;;6.20;4.65;;;18.30;27.20;;;;;;5037109;28;20436;-55
2022/12/18 05:20:13;;;;;;;6.25;4.97;;;18.30;27.10;;;;;;5055364;28;20044;-51
2022/12/18 05:22:39;;;;;;;7.68;5.68;;;18.20;27.20;;;;;;5060023;28;20067;-51
2022/12/18 05:25:05;;;;;;;6.88;5.22;;;18.30;27.20;;;;;;5045763;28;20068;-56
2022/12/18 05:27:31;;;;;;;7.40;5.28;;;18.30;27.20;;;;;;5054940;28;20021;-54
2022/12/18 05:29:57;;;;;;;6.40;5.25;;;18.20;27.10;;;;;;5054672;28;20052;-55
2022/12/18 05:32:22;;;;;;;6.55;5.05;;;18.20;27.10;;;;;;5055134;28;20033;-50
2022/12/18 05:34:48;;;;;;;7.47;5.28;;;18.20;27.00;;;;;;5037383;28;20029;-49
2022/12/18 05:37:14;;;;;;;6.13;4.70;;;18.20;27.00;;;;;;5055438;28;20466;-54
2022/12/18 05:39:40;;;;;;;5.80;4.57;;;18.20;27.00;;;;;;5037984;28;20040;-52
2022/12/18 05:42:06;;;;;;;6.43;4.70;;;18.20;27.00;;;;;;5054393;28;20112;-56
2022/12/18 05:44:32;;;;;;;7.35;5.53;;;18.20;27.00;;;;;;5036859;28;20360;-50
2022/12/18 05:46:57;;;;;;;6.18;4.53;;;18.20;27.00;;;;;;5036891;28;20174;-53
2022/12/18 05:49:23;;;;;;;9.13;4.97;;;18.20;27.00;;;;;;5054829;28;20024;-53
2022/12/18 05:51:49;;;;;;;6.00;4.45;;;18.20;27.00;;;;;;5054568;28;20029;-53
2022/12/18 05:54:15;;;;;;;6.65;4.55;;;18.20;27.20;;;;;;5054813;28;20033;-51
2022/12/18 05:56:41;;;;;;;5.93;4.63;;;18.20;27.20;;;;;;5055368;28;20025;-54
2022/12/18 05:59:07;;;;;;;6.00;4.53;;;18.20;27.20;;;;;;5036675;28;20442;-55
2022/12/18 06:01:32;;;;;;;5.88;4.47;;;18.10;27.20;;;;;;5054416;28;20484;-55
2022/12/18 06:03:58;;;;;;;5.35;4.15;;;18.10;27.30;;;;;;5054157;28;20068;-52
2022/12/18 06:06:28;;;;;;;5.78;4.63;;;18.10;27.30;;;;;;5036963;28;20049;-55
2022/12/18 06:08:56;;;;;;;5.70;4.40;;;18.10;27.30;;;;;;5038183;28;20029;-53
2022/12/18 06:11:24;;;;;;;7.20;4.55;;;18.10;27.30;;;;;;5058738;28;20132;-55
2022/12/18 06:13:52;;;;;;;6.55;4.85;;;18.10;27.30;;;;;;5058589;28;20044;-55
2022/12/18 06:16:18;;;;;;;5.55;4.00;;;18.10;27.30;;;;;;5058190;28;20053;-55
2022/12/18 06:18:43;;;;;;;6.22;4.25;;;18.10;27.30;;;;;;5041728;28;20091;-53
2022/12/18 06:21:09;;;;;;;6.18;4.40;;;18.00;27.30;;;;;;5058244;28;20033;-54
2022/12/18 06:23:35;;;;;;;6.00;4.28;;;18.00;27.30;;;;;;5053362;28;20036;-50
2022/12/18 06:26:09;;;;;;;5.47;4.13;;;18.00;27.80;;;;;;5078529;28;20435;-51
2022/12/18 06:28:35;;;;;;;5.68;4.20;;;18.00;27.30;;;;;;5078524;28;20093;-56
2022/12/18 06:31:03;;;;;;;6.95;4.70;;;18.00;27.30;;;;;;5045088;28;20116;-53
2022/12/18 06:33:29;;;;;;;5.38;4.13;;;18.00;27.30;;;;;;5058100;28;20067;-52
2022/12/18 06:36:00;;;;;;;6.68;4.28;;;18.00;27.30;;;;;;5058306;28;20044;-53
2022/12/18 06:38:26;;;;;;;6.10;4.00;;;18.00;27.30;;;;;;5040383;28;20021;-53
2022/12/18 06:40:52;;;;;;;5.90;4.18;;;18.00;27.30;;;;;;5058159;28;20356;-52
2022/12/18 06:43:18;;;;;;;5.35;4.00;;;18.00;27.30;;;;;;5039810;28;20029;-51
2022/12/18 06:45:44;;;;;;;6.72;4.07;;;18.00;27.30;;;;;;5058251;28;20139;-51
2022/12/18 06:48:09;;;;;;;5.50;4.35;;;18.00;27.30;;;;;;5040110;28;20128;-54
2022/12/18 06:50:35;;;;;;;5.97;4.47;;;18.00;27.30;;;;;;5040543;28;20479;-52
2022/12/18 06:53:01;;;;;;;5.68;4.10;;;18.00;27.30;;;;;;5057772;28;20025;-52
2022/12/18 06:55:27;;;;;;;5.10;3.80;;;18.00;27.30;;;;;;5023409;28;20021;-55
2022/12/18 06:57:53;;;;;;;4.75;3.88;;;17.90;27.30;;;;;;5057591;28;20025;-53
2022/12/18 07:00:18;;;;;;;5.85;3.60;;;18.00;27.30;;;;;;5058045;28;20025;-51
2022/12/18 07:02:44;;;;;;;5.35;3.80;;;17.90;27.30;;;;;;5057579;28;20033;-54
2022/12/18 07:05:10;;;;;;;5.38;4.20;;;17.90;27.30;;;;;;5057506;28;20043;-52
2022/12/18 07:07:36;;;;;;;5.82;4.18;;;17.90;27.30;;;;;;5040486;28;20039;-53
2022/12/18 07:10:03;;;;;;;5.88;3.90;;;17.90;27.30;;;;;;5039977;28;20449;-53
2022/12/18 07:12:28;;;;;;;5.15;3.80;;;17.90;27.80;;;;;;5039832;28;20036;-53
2022/12/18 07:14:54;;;;;;;5.60;4.13;;;17.90;27.40;;;;;;5057021;28;20029;-55
2022/12/18 07:17:20;;;;;;;5.57;3.88;;;17.90;27.40;;;;;;5057284;28;20034;-52
2022/12/18 07:19:46;;;;;;;5.10;3.97;;;17.90;27.50;;;;;;5056373;28;20039;-53
2022/12/18 07:22:12;;;;;;;5.78;4.38;;;17.90;27.40;;;;;;5058379;28;20126;-56
2022/12/18 07:24:38;;;;;;;4.88;4.00;;;17.90;27.50;;;;;;5059777;28;20040;-49
2022/12/18 07:27:03;;;;;;;5.00;3.75;;;17.90;27.90;;;;;;5069442;28;20028;-54
2022/12/18 07:29:29;;;;;;;4.47;3.40;;;17.90;27.80;;;;;;5056799;28;20043;-51
2022/12/18 07:31:55;;;;;;;4.50;3.30;;;17.90;28.00;;;;;;5038561;28;20032;-51
2022/12/18 07:34:21;;;;;;;3.97;3.33;;;17.90;28.20;;;;;;5038802;28;20104;-57
2022/12/18 07:36:47;;;;;;;5.60;3.42;;;17.90;28.40;;;;;;5055052;28;20017;-56
2022/12/18 07:39:13;;;;;;;6.05;3.70;;;17.90;28.50;;;;;;5055114;28;20479;-54
2022/12/18 07:41:45;;;;;;;5.60;3.40;;;17.90;28.70;;;;;;5055333;28;20035;-58
2022/12/18 07:44:12;;;;;;;4.05;3.05;;;18.00;28.70;;;;;;5031711;28;20106;-53
2022/12/18 07:46:39;;;;;;;4.65;3.20;;;18.00;28.80;;;;;;5053366;28;20041;-52
2022/12/18 07:49:06;;;;;;;6.97;3.42;;;18.10;28.90;;;;;;5056306;28;20029;-53
2022/12/18 07:51:32;;;;;;;3.95;2.83;;;18.10;28.90;;;;;;5055749;28;20044;-48
2022/12/18 07:53:58;;;;;;;7.70;3.25;;;18.20;28.90;;;;;;5046679;28;20099;-51
2022/12/18 07:56:24;;;;;;;5.93;3.05;;;18.20;28.90;;;;;;5037285;28;20029;-51
2022/12/18 07:58:50;;;;;;;7.18;3.08;;;18.30;28.90;;;;;;5056904;28;20028;-58
2022/12/18 08:01:15;;;;;;;4.88;3.30;;;18.40;28.90;;;;;;5053205;28;20116;-52
2022/12/18 08:03:41;;;;;;;5.05;3.13;;;18.50;28.90;;;;;;5056367;28;20040;-52
2022/12/18 08:06:09;;;;;;;3.83;3.05;;;18.50;28.90;;;;;;5056251;28;20467;-51
2022/12/18 08:08:35;;;;;;;6.03;3.22;;;18.60;29.50;;;;;;5056198;28;20037;-56
2022/12/18 08:11:01;;;;;;;4.53;3.40;;;18.70;29.10;;;;;;5055950;28;20359;-56
2022/12/18 08:13:28;;;;;;;4.32;2.83;;;18.70;29.00;;;;;;5056638;28;20028;-55
2022/12/18 08:16:05;;;;;;;4.28;2.92;;;18.80;29.00;;;;;;5037516;28;20047;-54
2022/12/18 08:18:33;;;;;;;5.15;3.05;;;18.90;28.90;;;;;;5056696;28;20440;-56
2022/12/18 08:21:15;;;;;;;4.18;3.03;;;18.90;28.80;;;;;;5038675;28;20035;-54
2022/12/18 08:23:41;;;;;;;5.95;3.10;;;19.00;28.70;;;;;;5068915;28;20428;-54
2022/12/18 08:26:06;;;;;;;4.10;3.20;;;19.10;28.70;;;;;;5057750;28;20111;-56
2022/12/18 08:28:33;;;;;;;4.18;3.00;;;19.10;28.70;;;;;;5056067;28;20446;-53
2022/12/18 08:30:59;;;;;;;5.28;3.45;;;19.20;28.70;;;;;;5055554;28;20029;-53
2022/12/18 08:33:26;;;;;;;5.72;3.20;;;19.20;28.60;;;;;;5055451;28;20029;-51
2022/12/18 08:35:52;;;;;;;4.25;2.88;;;19.30;28.50;;;;;;5056109;28;20399;-51
2022/12/18 08:38:18;;;;;;;5.78;3.10;;;19.30;28.40;;;;;;5055682;28;20048;-54
2022/12/18 08:40:43;;;;;;;4.97;3.40;;;19.40;28.40;;;;;;5055272;28;20452;-53
2022/12/18 08:45:55;;;;;;;3.47;2.80;;;19.50;28.30;;;;;;5054452;28;20048;-54
2022/12/18 08:48:21;;;;;;;4.30;3.13;;;19.50;28.30;;;;;;5055852;28;20078;-53
2022/12/18 08:50:58;;;;;;;6.00;3.00;;;19.60;28.20;;;;;;5038170;28;20412;-51
2022/12/18 08:53:25;;;;;;;4.22;2.92;;;19.60;28.10;;;;;;5055381;28;20025;-50
2022/12/18 08:55:51;;;;;;;4.80;3.40;;;19.70;28.10;;;;;;5055311;28;20033;-52
2022/12/18 08:58:17;;;;;;;5.13;3.05;;;19.70;28.10;;;;;;5055564;28;20033;-54
2022/12/18 09:00:43;;;;;;;4.88;3.10;;;19.80;28.10;;;;;;5054681;28;20044;-50
2022/12/18 09:03:17;;;;;;;3.90;2.95;;;19.80;28.10;;;;;;5055298;28;20033;-49
2022/12/18 09:05:45;;;;;;;3.77;2.80;;;19.90;28.10;;;;;;5055525;28;20059;-53
2022/12/18 09:08:11;;;;;;;6.00;2.75;;;19.90;28.00;;;;;;5055725;28;20033;-50
2022/12/18 09:10:48;;;;;;;4.53;3.05;;;19.90;28.00;;;;;;5055042;28;20036;-51
2022/12/18 09:13:15;;;;;;;4.90;3.10;;;20.00;27.90;;;;;;5054474;28;20479;-54
2022/12/18 09:15:49;;;;;;;6.28;3.10;;;20.00;27.90;;;;;;5055232;28;20364;-50
2022/12/18 09:18:17;;;;;;;3.50;2.65;;;20.10;27.80;;;;;;5055022;28;20032;-52
2022/12/18 09:20:43;;;;;;;4.55;2.75;;;20.20;27.80;;;;;;5055271;28;20044;-51
2022/12/18 09:23:09;;;;;;;3.65;2.70;;;20.20;27.70;;;;;;5045665;28;20021;-53
2022/12/18 09:25:35;;;;;;;4.43;2.67;;;20.30;27.70;;;;;;5075207;28;20036;-51
2022/12/18 09:28:14;;;;;;;4.50;2.80;;;20.30;27.60;;;;;;5071802;28;20052;-55
2022/12/18 09:30:49;;;;;;;4.20;2.95;;;20.40;27.60;;;;;;5034704;28;20053;-56
2022/12/18 09:33:16;;;;;;;3.90;2.45;;;20.40;27.50;;;;;;5053857;28;20033;-51
2022/12/18 09:35:44;;;;;;;4.78;2.90;;;20.50;27.50;;;;;;5050955;28;20104;-53
2022/12/18 09:38:15;;;;;;;4.35;2.72;;;20.50;27.40;;;;;;5052003;28;20037;-52
2022/12/18 09:40:53;;;;;;;4.35;2.22;;;20.60;27.40;;;;;;5044244;28;20117;-51
2022/12/18 09:43:33;;;;;;;3.38;2.60;;;20.60;27.40;;;;;;5037177;28;20024;-50
2022/12/18 09:46:04;;;;;;;3.00;2.35;;;20.70;27.40;;;;;;5046158;28;20098;-51
2022/12/18 09:48:35;;;;;;;4.60;2.50;;;20.70;27.30;;;;;;5054973;28;20052;-50
2022/12/18 09:51:09;;;;;;;4.03;2.42;;;20.70;27.50;;;;;;5036943;28;20029;-54
2022/12/18 09:53:40;;;;;;;3.05;2.20;;;20.80;27.80;;;;;;5054552;28;20025;-55
2022/12/18 09:56:06;;;;;;;4.05;2.42;;;20.80;27.40;;;;;;5037012;28;20094;-54
2022/12/18 09:58:44;;;;;;;4.18;2.58;;;20.80;27.50;;;;;;5053887;28;20040;-54
2022/12/18 10:01:20;;;;;;;3.80;2.38;;;20.90;27.60;;;;;;5044686;28;20040;-54
2022/12/18 10:03:47;;;;;;;3.28;2.20;;;20.90;27.70;;;;;;5043333;28;20049;-55
2022/12/18 10:06:21;;;;;;;4.18;2.17;;;20.90;27.80;;;;;;5042773;28;20029;-55
2022/12/18 10:09:09;;;;;;;3.00;2.10;;;20.90;27.90;;;;;;5026389;28;20029;-54
2022/12/18 10:12:09;;;;;;;5.97;2.40;;;21.00;27.80;;;;;;5042659;28;20033;-53
2022/12/18 10:14:48;;;;;;;4.25;2.47;;;21.00;27.80;;;;;;5041425;28;20123;-57
2022/12/18 10:17:45;;;;;;;3.90;2.50;;;21.00;27.80;;;;;;5044319;28;20402;-49
2022/12/18 10:20:37;;;;;;;3.40;2.50;;;21.10;27.80;;;;;;5020621;28;20365;-53
2022/12/18 10:23:32;;;;;;;4.63;2.50;;;21.10;27.80;;;;;;5000838;28;20041;-54
2022/12/18 10:26:03;;;;;;;;;;;21.10;27.70;;;;;;5043265;28;20033;-56
2022/12/18 10:28:32;;;;;;;4.00;2.40;;;21.10;27.80;;;;;;5042124;28;19912;-51
2022/12/18 10:30:58;;;;;;;6.00;2.53;;;21.10;27.80;;;;;;5045714;28;20052;-54
2022/12/18 10:33:29;;;;;;;3.58;1.90;;;21.10;27.80;;;;;;5044191;28;20150;-50
2022/12/18 10:35:55;;;;;;;4.53;2.67;;;21.10;27.90;;;;;;5006421;28;20028;-48
2022/12/18 10:38:29;;;;;;;3.10;2.60;;;21.10;27.90;;;;;;5041070;28;20097;-50
2022/12/18 10:41:03;;;;;;;5.15;2.75;;;21.10;27.60;;;;;;5042770;28;20120;-52
2022/12/18 10:43:47;;;;;;;3.67;2.75;;;21.00;27.10;;;;;;5042802;28;20037;-51
2022/12/18 10:46:17;;;;;;;4.55;2.53;;;20.90;26.80;;;;;;5030257;28;20470;-58
2022/12/18 10:48:57;;;;;;;5.38;3.47;;;20.90;26.80;;;;;;5043639;28;20021;-56
2022/12/18 10:51:35;;;;;;;6.70;3.95;;;20.90;27.00;;;;;;5041681;28;20107;-52
2022/12/18 10:54:14;;;;;;;8.13;4.72;;;20.80;27.30;;;;;;5024661;28;20028;-57
2022/12/18 10:56:40;;;;;;;10.48;5.85;;;20.80;27.70;;;;;;5031356;28;20115;-57
2022/12/18 10:59:08;;;;;;;12.70;5.82;;;20.90;28.40;;;;;;5048879;28;20083;-56
2022/12/18 11:01:56;;;;;;;10.60;5.45;;;20.80;28.90;;;;;;5037802;28;20029;-57
2022/12/18 11:04:24;;;;;;;9.80;6.03;;;20.80;29.40;;;;;;5052887;28;20058;-54
2022/12/18 11:07:02;;;;;;;9.88;5.72;;;20.80;29.80;;;;;;5047397;28;20052;-50
2022/12/18 11:09:32;;;;;;;10.68;5.90;;;20.80;30.20;;;;;;5046885;28;20158;-58
2022/12/18 11:12:01;;;;;;;14.23;7.03;;;20.90;31.00;;;;;;5044781;28;20022;-58
2022/12/18 11:14:32;;;;;;;15.27;7.40;;;20.80;30.90;;;;;;5049060;28;20025;-54
2022/12/18 11:16:59;;;;;;;14.15;7.72;;;20.90;31.60;;;;;;5009465;28;20056;-58
2022/12/18 11:19:41;;;;;;;12.60;7.00;;;20.90;32.20;;;;;;5048551;28;20041;-55
2022/12/18 11:22:20;;;;;;;14.75;6.90;;;20.90;32.60;;;;;;5045866;28;20036;-57
2022/12/18 11:24:55;;;;;;;14.98;7.15;;;20.90;33.00;;;;;;5028977;28;20021;-56
2022/12/18 11:27:21;;;;;;;10.27;5.97;;;20.90;33.10;;;;;;5045624;28;20036;-57
2022/12/18 11:29:51;;;;;;;10.27;6.07;;;20.90;33.50;;;;;;5045174;28;20025;-54
2022/12/18 11:32:39;;;;;;;11.40;6.25;;;20.90;33.50;;;;;;5048023;28;20022;-52
2022/12/18 11:35:18;;;;;;;9.25;5.47;;;20.90;33.30;;;;;;5045411;28;20108;-56
2022/12/18 11:37:49;;;;;;;11.05;5.75;;;20.90;33.00;;;;;;5044824;28;20121;-53
2022/12/18 11:40:22;;;;;;;9.98;5.30;;;20.80;32.60;;;;;;5048420;28;20029;-51
2022/12/18 11:42:57;;;;;;;10.70;5.45;;;20.90;32.10;;;;;;5041413;28;20032;-52
2022/12/18 11:45:26;;;;;;;8.85;4.70;;;20.80;31.60;;;;;;5044305;28;20042;-50
2022/12/18 11:48:01;;;;;;;9.30;4.78;;;20.80;31.10;;;;;;5044331;28;20035;-54
2022/12/18 11:50:37;;;;;;;8.05;4.63;;;20.80;30.70;;;;;;5044102;28;20043;-53
2022/12/18 11:53:03;;;;;;;6.75;4.00;;;20.80;30.30;;;;;;5028947;28;20036;-60
2022/12/18 11:55:49;;;;;;;5.07;3.40;;;20.80;30.10;;;;;;5026213;28;20025;-63
2022/12/18 11:58:15;;;;;;;5.88;3.53;;;20.70;29.80;;;;;;5045255;28;20035;-56
2022/12/18 12:01:11;;;;;;;5.95;2.95;;;20.60;29.10;;;;;;5046569;28;20116;-54
2022/12/18 12:03:52;;;;;;;4.90;3.15;;;20.60;28.90;;;;;;5045132;28;20022;-54
2022/12/18 12:06:27;;;;;;;6.57;2.67;;;20.50;28.70;;;;;;5045508;28;20029;-52
2022/12/18 12:08:56;;;;;;;6.00;3.10;;;20.50;28.60;;;;;;5046137;28;20091;-53
2022/12/18 12:11:48;;;;;;;5.05;3.20;;;20.50;28.50;;;;;;5045505;28;20049;-53
2022/12/18 12:14:23;;;;;;;7.32;3.08;;;20.50;28.40;;;;;;5045410;28;20029;-53
2022/12/18 12:17:09;;;;;;;4.60;2.95;;;20.50;28.40;;;;;;5026532;28;20048;-54
2022/12/18 12:19:53;;;;;;;8.05;3.22;;;20.50;28.40;;;;;;5032683;28;20112;-57
2022/12/18 12:22:39;;;;;;;4.65;3.10;;;20.50;28.40;;;;;;5044552;28;20036;-50
2022/12/18 12:25:43;;;;;;;7.55;3.70;;;20.50;28.30;;;;;;5045202;28;20026;-56
2022/12/18 12:28:46;;;;;;;8.27;3.45;;;20.60;28.30;;;;;;4929339;29;20117;-50
2022/12/18 12:31:50;;;;;;;6.38;3.00;;;20.60;28.20;;;;;;4945374;29;20086;-56
2022/12/18 12:34:21;;;;;;;6.43;3.10;;;20.60;28.20;;;;;;5046628;28;20120;-55
2022/12/18 12:37:03;;;;;;;4.65;2.60;;;20.70;28.20;;;;;;5026752;28;20032;-56
2022/12/18 12:39:40;;;;;;;5.30;2.90;;;20.70;28.10;;;;;;5044538;28;20026;-54
2022/12/18 12:45:05;;;;;;;3.78;2.72;;;20.70;27.90;;;;;;5054135;28;20061;-54
2022/12/18 12:47:38;;;;;;;4.32;2.95;;;20.80;27.80;;;;;;5054630;28;20425;-55
2022/12/18 12:50:12;;;;;;;5.15;3.05;;;20.80;27.70;;;;;;5052528;28;20094;-52
2022/12/18 12:52:43;;;;;;;3.58;2.90;;;20.80;27.60;;;;;;5054100;28;20036;-51
2022/12/18 12:55:17;;;;;;;4.25;2.63;;;20.80;27.60;;;;;;5055396;28;20043;-54
2022/12/18 12:58:02;;;;;;;5.67;3.00;;;20.90;28.00;;;;;;5055640;28;20128;-52
2022/12/18 13:00:37;;;;;;;3.22;2.53;;;20.90;27.40;;;;;;5054798;28;20025;-50
2022/12/18 13:03:24;;;;;;;4.03;2.70;;;20.90;27.40;;;;;;5031575;28;20557;-51
2022/12/18 13:06:07;;;;;;;4.30;3.13;;;20.90;27.30;;;;;;5035439;28;20064;-53
2022/12/18 13:08:59;;;;;;;3.65;2.60;;;21.00;27.30;;;;;;5035824;28;20038;-51
2022/12/18 13:14:36;;;;;;;3.47;2.67;;;21.00;27.20;;;;;;5028811;28;20032;-54
2022/12/18 13:17:20;;;;;;;3.55;2.88;;;21.00;27.10;;;;;;5053669;28;20045;-54